createdAt,value
2018-01-16T00:00:46.564Z,15.20
2018-01-16T00:01:46.549Z,15.40
2018-01-16T00:02:46.546Z,15.90
2018-01-16T00:03:46.567Z,11.50
2018-01-16T00:04:46.554Z,12.60
2018-01-16T00:05:46.559Z,9.80
2018-01-16T00:06:46.560Z,10.30
2018-01-16T00:07:46.567Z,8.40
2018-01-16T00:08:46.567Z,6.60
2018-01-16T00:09:46.573Z,8.00
2018-01-16T00:10:46.582Z,9.40
2018-01-16T00:11:46.580Z,8.20
2018-01-16T00:12:46.583Z,6.80
2018-01-16T00:13:46.579Z,6.70
2018-01-16T00:14:46.584Z,5.90
2018-01-16T00:15:46.586Z,7.60
2018-01-16T00:16:46.588Z,7.30
2018-01-16T00:17:46.589Z,7.10
2018-01-16T00:18:46.592Z,8.00
2018-01-16T00:19:46.599Z,8.40
2018-01-16T00:20:46.604Z,8.30
2018-01-16T00:21:46.600Z,8.70
2018-01-16T00:22:46.603Z,9.40
2018-01-16T00:23:46.606Z,7.00
2018-01-16T00:24:46.613Z,9.10
2018-01-16T00:25:46.613Z,6.70
2018-01-16T00:26:46.644Z,7.00
2018-01-16T00:27:46.616Z,7.90
2018-01-16T00:28:46.615Z,8.90
2018-01-16T00:29:46.622Z,8.90
2018-01-16T00:30:46.618Z,9.20
2018-01-16T00:31:46.639Z,9.10
2018-01-16T00:32:46.627Z,11.40
2018-01-16T00:33:46.623Z,10.10
2018-01-16T00:34:46.633Z,11.60
2018-01-16T00:35:46.636Z,13.80
2018-01-16T00:36:46.639Z,16.10
2018-01-16T00:37:46.651Z,18.10
2018-01-16T00:38:46.643Z,17.90
2018-01-16T00:39:46.641Z,19.00
2018-01-16T00:40:46.643Z,21.20
2018-01-16T00:41:46.646Z,21.70
2018-01-16T00:42:46.650Z,21.10
2018-01-16T00:43:46.651Z,24.20
2018-01-16T00:44:47.440Z,19.60
2018-01-16T00:45:46.652Z,19.90
2018-01-16T00:46:46.660Z,18.90
2018-01-16T00:47:46.663Z,20.30
2018-01-16T00:48:46.680Z,19.30
2018-01-16T00:49:46.673Z,19.90
2018-01-16T00:50:46.667Z,19.40
2018-01-16T00:51:46.672Z,20.00
2018-01-16T00:52:46.670Z,20.10
2018-01-16T00:53:46.677Z,17.80
2018-01-16T00:54:46.677Z,20.90
2018-01-16T00:55:46.682Z,20.20
2018-01-16T00:56:46.679Z,18.80
2018-01-16T00:57:46.683Z,19.00
2018-01-16T00:58:46.689Z,16.90
2018-01-16T00:59:47.436Z,18.40
2018-01-16T01:00:46.697Z,19.50
2018-01-16T01:01:46.696Z,20.00
2018-01-16T01:02:46.700Z,18.70
2018-01-16T01:03:46.695Z,20.30
2018-01-16T01:04:46.708Z,19.40
2018-01-16T01:05:46.704Z,20.00
2018-01-16T01:06:46.705Z,18.80
2018-01-16T01:07:46.711Z,18.80
2018-01-16T01:08:46.713Z,20.10
2018-01-16T01:09:46.721Z,21.20
2018-01-16T01:10:46.730Z,18.80
2018-01-16T01:11:46.718Z,18.50
2018-01-16T01:12:46.727Z,17.80
2018-01-16T01:13:46.728Z,19.00
2018-01-16T01:14:46.732Z,17.00
2018-01-16T01:15:46.725Z,18.40
2018-01-16T01:16:46.735Z,20.00
2018-01-16T01:17:46.733Z,19.40
2018-01-16T01:18:46.739Z,19.70
2018-01-16T01:19:46.743Z,20.40
2018-01-16T01:20:46.741Z,22.90
2018-01-16T01:21:46.744Z,17.20
2018-01-16T01:22:46.751Z,17.40
2018-01-16T01:23:46.753Z,16.80
2018-01-16T01:24:46.751Z,13.30
2018-01-16T01:25:46.752Z,13.60
2018-01-16T01:26:46.765Z,13.20
2018-01-16T01:27:46.757Z,15.60
2018-01-16T01:28:46.762Z,13.90
2018-01-16T01:29:46.767Z,15.50
2018-01-16T01:30:46.770Z,13.10
2018-01-16T01:31:46.769Z,16.10
2018-01-16T01:32:46.774Z,15.90
2018-01-16T01:33:46.776Z,14.40
2018-01-16T01:34:46.778Z,14.50
2018-01-16T01:35:46.780Z,16.40
2018-01-16T01:36:46.784Z,16.60
2018-01-16T01:37:46.783Z,14.50
2018-01-16T01:38:46.792Z,15.20
2018-01-16T01:39:46.800Z,15.40
2018-01-16T01:40:46.797Z,15.60
2018-01-16T01:41:46.793Z,17.60
2018-01-16T01:42:46.799Z,15.80
2018-01-16T01:43:46.811Z,16.90
2018-01-16T01:44:46.803Z,17.60
2018-01-16T01:45:46.808Z,15.40
2018-01-16T01:46:46.803Z,16.70
2018-01-16T01:47:46.808Z,14.70
2018-01-16T01:48:46.815Z,17.70
2018-01-16T01:49:46.815Z,17.00
2018-01-16T01:50:46.815Z,16.10
2018-01-16T01:51:46.819Z,16.00
2018-01-16T01:52:46.835Z,17.60
2018-01-16T01:53:46.830Z,16.80
2018-01-16T01:54:46.849Z,15.60
2018-01-16T01:55:46.826Z,16.40
2018-01-16T01:56:46.834Z,18.80
2018-01-16T01:57:46.834Z,17.90
2018-01-16T01:58:46.836Z,18.20
2018-01-16T01:59:46.836Z,16.30
2018-01-16T02:00:46.841Z,16.90
2018-01-16T02:01:46.846Z,14.90
2018-01-16T02:02:46.863Z,17.90
2018-01-16T02:03:46.849Z,17.20
2018-01-16T02:04:46.865Z,15.30
2018-01-16T02:05:46.859Z,15.90
2018-01-16T02:06:46.853Z,16.60
2018-01-16T02:07:46.857Z,19.30
2018-01-16T02:08:46.864Z,15.00
2018-01-16T02:09:46.864Z,17.60
2018-01-16T02:10:46.864Z,13.80
2018-01-16T02:11:46.866Z,15.80
2018-01-16T02:12:46.874Z,18.60
2018-01-16T02:13:46.874Z,17.20
2018-01-16T02:14:46.872Z,19.30
2018-01-16T02:15:46.879Z,11.80
2018-01-16T02:16:46.879Z,15.00
2018-01-16T02:17:46.890Z,16.20
2018-01-16T02:18:46.880Z,12.30
2018-01-16T02:19:46.890Z,17.40
2018-01-16T02:20:46.889Z,11.90
2018-01-16T02:21:46.895Z,12.50
2018-01-16T02:22:46.893Z,15.40
2018-01-16T02:23:46.899Z,14.50
2018-01-16T02:24:46.899Z,14.10
2018-01-16T02:25:46.904Z,17.70
2018-01-16T02:26:46.900Z,13.60
2018-01-16T02:27:47.573Z,10.90
2018-01-16T02:28:46.911Z,15.30
2018-01-16T02:29:46.916Z,13.30
2018-01-16T02:30:46.915Z,12.30
2018-01-16T02:31:46.916Z,14.20
2018-01-16T02:32:46.925Z,11.40
2018-01-16T02:33:46.922Z,13.00
2018-01-16T02:34:46.925Z,13.30
2018-01-16T02:35:46.925Z,12.70
2018-01-16T02:36:46.933Z,13.30
2018-01-16T02:37:46.934Z,11.60
2018-01-16T02:38:46.932Z,14.30
2018-01-16T02:39:46.940Z,11.20
2018-01-16T02:40:46.940Z,13.90
2018-01-16T02:41:46.947Z,13.30
2018-01-16T02:42:46.960Z,12.90
2018-01-16T02:43:46.947Z,10.00
2018-01-16T02:44:46.949Z,10.60
2018-01-16T02:45:46.955Z,11.90
2018-01-16T02:46:46.954Z,10.10
2018-01-16T02:47:46.957Z,12.10
2018-01-16T02:48:46.970Z,9.50
2018-01-16T02:49:46.969Z,15.00
2018-01-16T02:50:46.973Z,12.70
2018-01-16T02:51:46.967Z,9.10
2018-01-16T02:52:46.980Z,9.10
2018-01-16T02:53:46.973Z,9.10
2018-01-16T02:54:46.983Z,13.10
2018-01-16T02:55:46.977Z,11.80
2018-01-16T02:56:46.985Z,10.10
2018-01-16T02:57:46.981Z,10.20
2018-01-16T02:58:46.987Z,7.20
2018-01-16T02:59:46.981Z,8.90
2018-01-16T03:00:46.992Z,9.20
2018-01-16T03:01:46.996Z,12.70
2018-01-16T03:02:46.994Z,9.70
2018-01-16T03:03:46.997Z,8.90
2018-01-16T03:04:47.006Z,9.70
2018-01-16T03:05:47.005Z,10.70
2018-01-16T03:06:47.004Z,8.80
2018-01-16T03:07:47.009Z,11.50
2018-01-16T03:08:47.013Z,10.50
2018-01-16T03:09:47.016Z,9.70
2018-01-16T03:10:47.015Z,9.90
2018-01-16T03:11:47.021Z,9.10
2018-01-16T03:12:47.020Z,11.70
2018-01-16T03:13:47.023Z,11.20
2018-01-16T03:14:47.029Z,9.90
2018-01-16T03:15:47.033Z,8.60
2018-01-16T03:16:47.030Z,11.90
2018-01-16T03:17:47.032Z,13.30
2018-01-16T03:18:47.038Z,11.40
2018-01-16T03:19:47.042Z,10.10
2018-01-16T03:20:47.055Z,12.90
2018-01-16T03:21:47.047Z,12.90
2018-01-16T03:22:47.045Z,10.50
2018-01-16T03:23:47.062Z,15.20
2018-01-16T03:24:47.054Z,13.40
2018-01-16T03:25:47.053Z,13.70
2018-01-16T03:26:47.054Z,12.80
2018-01-16T03:27:47.057Z,14.00
2018-01-16T03:28:47.065Z,13.60
2018-01-16T03:29:47.066Z,13.00
2018-01-16T03:30:47.084Z,12.80
2018-01-16T03:31:47.067Z,13.70
2018-01-16T03:32:47.071Z,17.10
2018-01-16T03:33:47.074Z,13.80
2018-01-16T03:34:47.079Z,13.10
2018-01-16T03:35:47.076Z,16.10
2018-01-16T03:36:47.080Z,12.80
2018-01-16T03:37:47.081Z,14.80
2018-01-16T03:38:47.092Z,15.40
2018-01-16T03:39:47.088Z,15.90
2018-01-16T03:40:47.093Z,15.60
2018-01-16T03:41:47.090Z,14.30
2018-01-16T03:42:47.094Z,12.80
2018-01-16T03:43:47.097Z,15.30
2018-01-16T03:44:47.097Z,14.30
2018-01-16T03:45:47.100Z,13.70
2018-01-16T03:46:47.106Z,12.50
2018-01-16T03:47:47.108Z,13.20
2018-01-16T03:48:47.117Z,16.50
2018-01-16T03:49:47.114Z,17.30
2018-01-16T03:50:47.111Z,12.40
2018-01-16T03:51:47.117Z,13.90
2018-01-16T03:52:47.117Z,14.70
2018-01-16T03:53:47.119Z,14.70
2018-01-16T03:54:47.127Z,14.20
2018-01-16T03:55:47.128Z,13.50
2018-01-16T03:56:47.166Z,12.60
2018-01-16T03:57:47.137Z,14.10
2018-01-16T03:58:47.140Z,11.50
2018-01-16T03:59:47.142Z,13.50
2018-01-16T04:00:47.147Z,13.90
2018-01-16T04:01:47.141Z,12.60
2018-01-16T04:02:47.145Z,14.20
2018-01-16T04:03:47.149Z,13.50
2018-01-16T04:04:47.148Z,13.80
2018-01-16T04:05:47.151Z,13.00
2018-01-16T04:06:47.151Z,14.50
2018-01-16T04:07:47.160Z,16.90
2018-01-16T04:08:47.157Z,15.50
2018-01-16T04:09:47.160Z,18.50
2018-01-16T04:10:47.166Z,14.00
2018-01-16T04:11:47.174Z,15.00
2018-01-16T04:12:47.176Z,17.90
2018-01-16T04:13:47.176Z,17.20
2018-01-16T04:14:47.201Z,14.80
2018-01-16T04:15:47.169Z,16.80
2018-01-16T04:16:47.176Z,14.80
2018-01-16T04:17:47.176Z,16.00
2018-01-16T04:18:47.183Z,14.50
2018-01-16T04:19:47.189Z,14.20
2018-01-16T04:20:47.189Z,14.90
2018-01-16T04:21:47.191Z,15.00
2018-01-16T04:22:47.185Z,17.70
2018-01-16T04:23:47.205Z,11.60
2018-01-16T04:24:47.201Z,14.10
2018-01-16T04:25:47.206Z,16.00
2018-01-16T04:26:47.210Z,15.80
2018-01-16T04:27:47.205Z,15.20
2018-01-16T04:28:47.203Z,15.50
2018-01-16T04:29:47.212Z,13.70
2018-01-16T04:30:47.208Z,16.30
2018-01-16T04:31:47.213Z,11.30
2018-01-16T04:32:47.220Z,13.00
2018-01-16T04:33:47.221Z,15.60
2018-01-16T04:34:47.219Z,14.80
2018-01-16T04:35:47.224Z,12.20
2018-01-16T04:36:47.225Z,14.00
2018-01-16T04:37:47.229Z,15.70
2018-01-16T04:38:47.244Z,17.50
2018-01-16T04:39:47.228Z,14.30
2018-01-16T04:40:47.254Z,17.50
2018-01-16T04:41:47.233Z,20.40
2018-01-16T04:42:47.242Z,15.90
2018-01-16T04:43:47.240Z,17.50
2018-01-16T04:44:47.246Z,16.80
2018-01-16T04:45:47.244Z,18.50
2018-01-16T04:46:47.251Z,18.90
2018-01-16T04:47:47.254Z,18.90
2018-01-16T04:48:47.255Z,19.10
2018-01-16T04:49:47.265Z,20.10
2018-01-16T04:50:47.262Z,21.00
2018-01-16T04:51:47.265Z,19.70
2018-01-16T04:52:48.018Z,18.10
2018-01-16T04:53:47.265Z,15.90
2018-01-16T04:54:47.276Z,14.60
2018-01-16T04:55:47.271Z,16.50
2018-01-16T04:56:47.272Z,13.20
2018-01-16T04:57:47.273Z,11.10
2018-01-16T04:58:47.278Z,13.20
2018-01-16T04:59:47.284Z,14.00
2018-01-16T05:00:47.278Z,11.80
2018-01-16T05:01:47.283Z,11.70
2018-01-16T05:02:47.293Z,14.00
2018-01-16T05:03:47.299Z,10.00
2018-01-16T05:04:47.292Z,12.90
2018-01-16T05:05:47.291Z,8.20
2018-01-16T05:06:47.299Z,7.40
2018-01-16T05:07:47.298Z,10.30
2018-01-16T05:08:47.304Z,12.90
2018-01-16T05:09:47.301Z,10.50
2018-01-16T05:10:47.307Z,9.40
2018-01-16T05:11:47.311Z,8.00
2018-01-16T05:12:47.311Z,7.30
2018-01-16T05:13:47.314Z,7.30
2018-01-16T05:14:47.320Z,9.90
2018-01-16T05:15:47.323Z,11.10
2018-01-16T05:16:47.317Z,10.10
2018-01-16T05:17:47.322Z,9.40
2018-01-16T05:18:47.706Z,10.80
2018-01-16T05:19:47.569Z,11.80
2018-01-16T05:20:47.328Z,13.30
2018-01-16T05:21:47.336Z,9.70
2018-01-16T05:22:47.339Z,12.80
2018-01-16T05:23:47.334Z,11.60
2018-01-16T05:24:47.333Z,11.60
2018-01-16T05:25:47.340Z,9.80
2018-01-16T05:26:47.342Z,10.70
2018-01-16T05:27:47.349Z,12.00
2018-01-16T05:28:47.345Z,8.90
2018-01-16T05:29:47.350Z,10.60
2018-01-16T05:30:47.349Z,12.00
2018-01-16T05:31:47.357Z,11.60
2018-01-16T05:32:47.354Z,11.50
2018-01-16T05:33:47.361Z,11.30
2018-01-16T05:34:47.357Z,12.50
2018-01-16T05:35:47.355Z,10.20
2018-01-16T05:36:47.371Z,13.40
2018-01-16T05:37:47.367Z,11.20
2018-01-16T05:38:47.368Z,12.90
2018-01-16T05:39:47.386Z,11.70
2018-01-16T05:40:47.374Z,11.80
2018-01-16T05:41:47.376Z,10.70
2018-01-16T05:42:47.374Z,11.60
2018-01-16T05:43:47.378Z,9.70
2018-01-16T05:44:47.397Z,9.90
2018-01-16T05:45:47.389Z,8.10
2018-01-16T05:46:47.442Z,13.70
2018-01-16T05:47:47.385Z,10.80
2018-01-16T05:48:47.393Z,11.50
2018-01-16T05:49:47.396Z,11.50
2018-01-16T05:50:47.395Z,12.50
2018-01-16T05:51:47.400Z,10.40
2018-01-16T05:52:47.397Z,11.80
2018-01-16T05:53:47.400Z,11.80
2018-01-16T05:54:47.404Z,14.60
2018-01-16T05:55:47.407Z,11.50
2018-01-16T05:56:47.412Z,11.90
2018-01-16T05:57:47.408Z,12.40
2018-01-16T05:58:47.435Z,12.70
2018-01-16T05:59:47.416Z,13.80
2018-01-16T06:00:47.416Z,13.40
2018-01-16T06:01:47.421Z,11.90
2018-01-16T06:02:47.421Z,11.30
2018-01-16T06:03:47.425Z,15.90
2018-01-16T06:04:47.425Z,13.50
2018-01-16T06:05:47.431Z,15.60
2018-01-16T06:06:47.429Z,15.80
2018-01-16T06:07:47.429Z,14.30
2018-01-16T06:08:47.436Z,16.60
2018-01-16T06:09:47.443Z,13.40
2018-01-16T06:10:47.437Z,14.40
2018-01-16T06:11:47.437Z,15.00
2018-01-16T06:12:47.446Z,18.30
2018-01-16T06:13:47.450Z,22.70
2018-01-16T06:14:47.446Z,18.40
2018-01-16T06:15:47.452Z,17.60
2018-01-16T06:16:47.464Z,15.40
2018-01-16T06:17:47.455Z,15.30
2018-01-16T06:18:47.458Z,16.60
2018-01-16T06:19:47.457Z,16.40
2018-01-16T06:20:47.465Z,18.10
2018-01-16T06:21:47.469Z,20.30
2018-01-16T06:22:47.469Z,19.00
2018-01-16T06:23:47.473Z,18.60
2018-01-16T06:24:47.472Z,18.30
2018-01-16T06:25:47.481Z,20.30
2018-01-16T06:26:47.483Z,19.40
2018-01-16T06:27:47.487Z,20.20
2018-01-16T06:28:47.484Z,22.80
2018-01-16T06:29:47.491Z,21.90
2018-01-16T06:30:47.486Z,19.80
2018-01-16T06:31:47.491Z,17.60
2018-01-16T06:32:47.501Z,15.80
2018-01-16T06:33:47.499Z,17.90
2018-01-16T06:34:47.497Z,20.70
2018-01-16T06:35:47.501Z,19.10
2018-01-16T06:36:47.514Z,17.70
2018-01-16T06:37:47.506Z,20.50
2018-01-16T06:38:47.541Z,18.80
2018-01-16T06:39:47.507Z,19.10
2018-01-16T06:40:47.519Z,17.40
2018-01-16T06:41:47.512Z,19.80
2018-01-16T06:42:47.524Z,19.60
2018-01-16T06:43:47.516Z,20.00
2018-01-16T06:44:47.526Z,18.60
2018-01-16T06:45:47.524Z,16.00
2018-01-16T06:46:47.528Z,17.70
2018-01-16T06:47:47.530Z,15.00
2018-01-16T06:48:47.538Z,16.70
2018-01-16T06:49:47.541Z,20.90
2018-01-16T06:50:47.538Z,19.50
2018-01-16T06:51:47.539Z,17.30
2018-01-16T06:52:47.550Z,21.60
2018-01-16T06:53:47.553Z,17.40
2018-01-16T06:54:47.546Z,18.70
2018-01-16T06:55:47.556Z,20.00
2018-01-16T06:56:47.562Z,18.20
2018-01-16T06:57:47.558Z,18.70
2018-01-16T06:58:47.556Z,16.20
2018-01-16T06:59:47.562Z,19.60
2018-01-16T07:00:47.566Z,16.20
2018-01-16T07:01:47.627Z,18.20
2018-01-16T07:02:47.572Z,14.50
2018-01-16T07:03:47.576Z,15.80
2018-01-16T07:04:47.574Z,15.50
2018-01-16T07:05:47.580Z,18.10
2018-01-16T07:06:47.582Z,16.40
2018-01-16T07:07:47.587Z,17.80
2018-01-16T07:08:47.593Z,16.20
2018-01-16T07:09:47.585Z,18.80
2018-01-16T07:10:47.588Z,16.80
2018-01-16T07:11:47.593Z,16.10
2018-01-16T07:12:47.592Z,18.90
2018-01-16T07:13:47.600Z,17.90
2018-01-16T07:14:47.599Z,13.00
2018-01-16T07:15:47.605Z,14.20
2018-01-16T07:16:47.622Z,16.80
2018-01-16T07:17:47.607Z,15.20
2018-01-16T07:18:47.622Z,17.30
2018-01-16T07:19:47.610Z,15.60
2018-01-16T07:20:47.624Z,17.10
2018-01-16T07:21:47.618Z,18.70
2018-01-16T07:22:47.624Z,15.40
2018-01-16T07:23:47.620Z,16.40
2018-01-16T07:24:47.631Z,14.90
2018-01-16T07:25:47.628Z,17.40
2018-01-16T07:26:47.631Z,16.60
2018-01-16T07:27:47.631Z,13.50
2018-01-16T07:28:47.649Z,16.90
2018-01-16T07:29:47.645Z,16.70
2018-01-16T07:30:47.665Z,19.20
2018-01-16T07:31:47.643Z,14.30
2018-01-16T07:32:47.649Z,19.50
2018-01-16T07:33:47.659Z,20.50
2018-01-16T07:34:47.652Z,18.70
2018-01-16T07:35:47.645Z,17.10
2018-01-16T07:36:47.669Z,18.30
2018-01-16T07:37:47.661Z,18.60
2018-01-16T07:38:47.658Z,20.10
2018-01-16T07:39:47.758Z,16.60
2018-01-16T07:40:47.668Z,16.80
2018-01-16T07:41:47.668Z,18.40
2018-01-16T07:42:47.667Z,18.30
2018-01-16T07:43:47.671Z,21.80
2018-01-16T07:44:47.682Z,19.50
2018-01-16T07:45:47.682Z,17.40
2018-01-16T07:46:47.680Z,16.30
2018-01-16T07:47:47.683Z,18.00
2018-01-16T07:48:47.691Z,17.00
2018-01-16T07:49:47.734Z,15.70
2018-01-16T07:50:47.692Z,20.10
2018-01-16T07:51:47.696Z,24.30
2018-01-16T07:52:47.695Z,19.30
2018-01-16T07:53:47.698Z,17.30
2018-01-16T07:54:47.706Z,15.60
2018-01-16T07:55:47.708Z,15.60
2018-01-16T07:56:47.708Z,17.70
2018-01-16T07:57:47.710Z,18.10
2018-01-16T07:58:47.716Z,19.20
2018-01-16T07:59:47.716Z,20.60
2018-01-16T08:00:47.725Z,19.60
2018-01-16T08:01:47.725Z,18.40
2018-01-16T08:02:47.717Z,16.80
2018-01-16T08:03:47.726Z,14.70
2018-01-16T08:04:47.734Z,16.30
2018-01-16T08:05:47.733Z,15.10
2018-01-16T08:06:47.743Z,15.10
2018-01-16T08:07:47.740Z,16.80
2018-01-16T08:08:47.740Z,14.00
2018-01-16T08:09:47.744Z,15.20
2018-01-16T08:10:47.752Z,18.50
2018-01-16T08:11:47.750Z,14.10
2018-01-16T08:12:47.749Z,12.10
2018-01-16T08:13:47.776Z,14.40
2018-01-16T08:14:47.755Z,15.30
2018-01-16T08:15:47.762Z,13.60
2018-01-16T08:16:47.766Z,14.80
2018-01-16T08:17:47.768Z,17.80
2018-01-16T08:18:47.780Z,15.20
2018-01-16T08:19:47.776Z,14.40
2018-01-16T08:20:47.774Z,14.50
2018-01-16T08:21:47.773Z,15.50
2018-01-16T08:22:47.780Z,13.30
2018-01-16T08:23:47.807Z,12.70
2018-01-16T08:24:47.792Z,13.00
2018-01-16T08:25:47.800Z,13.50
2018-01-16T08:26:47.794Z,12.90
2018-01-16T08:27:47.791Z,10.20
2018-01-16T08:28:47.800Z,5.40
2018-01-16T08:29:47.801Z,6.90
2018-01-16T08:30:47.806Z,5.30
2018-01-16T08:31:47.802Z,7.00
2018-01-16T08:32:47.837Z,4.80
2018-01-16T08:33:47.813Z,4.90
2018-01-16T08:34:47.816Z,5.50
2018-01-16T08:35:47.818Z,5.00
2018-01-16T08:36:47.822Z,6.70
2018-01-16T08:37:47.821Z,3.70
2018-01-16T08:38:47.845Z,5.00
2018-01-16T08:39:47.830Z,4.10
2018-01-16T08:40:47.837Z,2.50
2018-01-16T08:41:47.831Z,5.60
2018-01-16T08:42:47.835Z,4.20
2018-01-16T08:43:47.841Z,3.60
2018-01-16T08:44:47.838Z,4.50
2018-01-16T08:45:47.839Z,4.90
2018-01-16T08:46:47.845Z,3.60
2018-01-16T08:47:47.848Z,6.20
2018-01-16T08:48:47.847Z,4.00
2018-01-16T08:49:47.846Z,5.10
2018-01-16T08:50:47.847Z,5.30
2018-01-16T08:51:48.023Z,4.20
2018-01-16T08:52:47.853Z,5.20
2018-01-16T08:53:47.856Z,6.10
2018-01-16T08:54:47.855Z,5.60
2018-01-16T08:55:47.861Z,9.50
2018-01-16T08:56:47.858Z,7.90
2018-01-16T08:57:47.859Z,4.70
2018-01-16T08:58:47.866Z,7.90
2018-01-16T08:59:47.867Z,4.80
2018-01-16T09:00:47.870Z,8.10
2018-01-16T09:01:47.867Z,9.00
2018-01-16T09:02:47.873Z,6.80
2018-01-16T09:03:47.874Z,6.60
2018-01-16T09:04:47.875Z,6.10
2018-01-16T09:05:47.872Z,5.40
2018-01-16T09:06:47.903Z,4.80
2018-01-16T09:07:47.894Z,6.00
2018-01-16T09:08:47.879Z,6.30
2018-01-16T09:09:47.880Z,6.40
2018-01-16T09:10:47.885Z,5.90
2018-01-16T09:11:47.889Z,6.40
2018-01-16T09:12:47.885Z,6.20
2018-01-16T09:13:47.894Z,6.80
2018-01-16T09:14:47.886Z,6.30
2018-01-16T09:15:47.895Z,3.70
2018-01-16T09:16:47.906Z,5.10
2018-01-16T09:17:47.905Z,5.20
2018-01-16T09:18:47.902Z,6.20
2018-01-16T09:19:47.902Z,4.80
2018-01-16T09:20:47.904Z,5.00
2018-01-16T09:21:47.942Z,5.00
2018-01-16T09:22:47.920Z,6.40
2018-01-16T09:23:47.910Z,3.60
2018-01-16T09:24:47.908Z,4.30
2018-01-16T09:25:47.911Z,4.40
2018-01-16T09:26:47.908Z,5.50
2018-01-16T09:27:47.909Z,4.50
2018-01-16T09:28:47.917Z,7.20
2018-01-16T09:29:47.915Z,5.30
2018-01-16T09:30:47.918Z,7.00
2018-01-16T09:31:47.921Z,6.50
2018-01-16T09:32:47.922Z,6.10
2018-01-16T09:33:47.919Z,5.40
2018-01-16T09:34:47.926Z,6.70
2018-01-16T09:35:47.928Z,5.10
2018-01-16T09:36:47.924Z,3.90
2018-01-16T09:37:47.923Z,8.00
2018-01-16T09:38:47.931Z,6.00
2018-01-16T09:39:47.930Z,5.30
2018-01-16T09:40:47.932Z,3.60
2018-01-16T09:41:47.936Z,4.70
2018-01-16T09:42:47.928Z,5.90
2018-01-16T09:43:47.945Z,5.00
2018-01-16T09:44:47.940Z,4.80
2018-01-16T09:45:47.938Z,6.90
2018-01-16T09:46:48.561Z,4.40
2018-01-16T09:47:47.944Z,6.60
2018-01-16T09:48:47.943Z,4.50
2018-01-16T09:49:47.957Z,5.50
2018-01-16T09:50:47.949Z,4.40
2018-01-16T09:51:47.949Z,6.00
2018-01-16T09:52:47.953Z,4.60
2018-01-16T09:53:47.949Z,5.10
2018-01-16T09:54:47.952Z,2.60
2018-01-16T09:55:47.957Z,5.30
2018-01-16T09:56:47.953Z,3.10
2018-01-16T09:57:47.952Z,4.30
2018-01-16T09:58:47.966Z,4.20
2018-01-16T09:59:47.958Z,3.80
2018-01-16T10:00:47.962Z,5.30
2018-01-16T10:01:47.959Z,3.00
2018-01-16T10:02:47.963Z,4.50
2018-01-16T10:03:47.963Z,3.30
2018-01-16T10:04:47.973Z,3.40
2018-01-16T10:05:47.964Z,2.50
2018-01-16T10:06:47.969Z,3.30
2018-01-16T10:07:47.998Z,2.90
2018-01-16T10:08:47.973Z,3.00
2018-01-16T10:09:47.964Z,4.90
2018-01-16T10:10:47.970Z,4.00
2018-01-16T10:11:47.970Z,2.70
2018-01-16T10:12:47.975Z,2.00
2018-01-16T10:13:47.975Z,3.20
2018-01-16T10:14:47.978Z,2.40
2018-01-16T10:15:47.973Z,3.70
2018-01-16T10:16:47.981Z,2.70
2018-01-16T10:17:47.980Z,1.80
2018-01-16T10:18:47.978Z,3.20
2018-01-16T10:19:47.979Z,2.80
2018-01-16T10:20:47.993Z,2.50
2018-01-16T10:21:47.992Z,2.50
2018-01-16T10:22:47.986Z,1.70
2018-01-16T10:23:47.985Z,2.60
2018-01-16T10:24:47.995Z,3.20
2018-01-16T10:25:47.993Z,2.60
2018-01-16T10:26:47.989Z,3.30
2018-01-16T10:27:47.992Z,1.90
2018-01-16T10:28:47.999Z,2.80
2018-01-16T10:29:47.996Z,2.40
2018-01-16T10:30:47.998Z,2.30
2018-01-16T10:31:47.991Z,2.20
2018-01-16T10:32:48.005Z,4.70
2018-01-16T10:33:48.006Z,3.00
2018-01-16T10:34:47.999Z,2.50
2018-01-16T10:35:48.003Z,1.90
2018-01-16T10:36:48.005Z,2.20
2018-01-16T10:37:48.008Z,2.90
2018-01-16T10:38:48.006Z,2.70
2018-01-16T10:39:48.011Z,2.70
2018-01-16T10:40:48.020Z,1.70
2018-01-16T10:41:48.021Z,2.20
2018-01-16T10:42:48.013Z,4.10
2018-01-16T10:43:48.019Z,2.50
2018-01-16T10:44:48.027Z,2.70
2018-01-16T10:45:48.033Z,1.80
2018-01-16T10:46:48.025Z,3.40
2018-01-16T10:47:48.030Z,3.60
2018-01-16T10:48:48.022Z,2.40
2018-01-16T10:49:48.036Z,2.80
2018-01-16T10:50:48.038Z,2.40
2018-01-16T10:51:48.038Z,4.50
2018-01-16T10:52:48.037Z,2.70
2018-01-16T10:53:48.042Z,3.90
2018-01-16T10:54:48.040Z,2.40
2018-01-16T10:55:48.051Z,2.30
2018-01-16T10:56:48.062Z,2.90
2018-01-16T10:57:48.058Z,3.30
2018-01-16T10:58:48.044Z,3.90
2018-01-16T10:59:48.055Z,4.00
2018-01-16T11:00:48.051Z,3.60
2018-01-16T11:01:48.063Z,4.80
2018-01-16T11:02:48.057Z,4.40
2018-01-16T11:03:48.065Z,2.60
2018-01-16T11:04:48.070Z,4.70
2018-01-16T11:05:48.085Z,5.10
2018-01-16T11:06:48.065Z,3.30
2018-01-16T11:07:48.072Z,3.50
2018-01-16T11:08:48.074Z,3.60
2018-01-16T11:09:48.074Z,3.40
2018-01-16T11:10:48.077Z,4.40
2018-01-16T11:11:48.078Z,3.60
2018-01-16T11:12:48.083Z,4.80
2018-01-16T11:13:48.079Z,4.40
2018-01-16T11:14:48.095Z,2.50
2018-01-16T11:15:48.085Z,4.30
2018-01-16T11:16:48.092Z,5.60
2018-01-16T11:17:48.090Z,6.40
2018-01-16T11:18:48.096Z,6.00
2018-01-16T11:19:48.094Z,7.20
2018-01-16T11:20:48.100Z,5.10
2018-01-16T11:21:48.103Z,7.20
2018-01-16T11:22:48.104Z,6.80
2018-01-16T11:23:48.100Z,6.20
2018-01-16T11:24:48.111Z,6.70
2018-01-16T11:25:48.110Z,6.30
2018-01-16T11:26:48.112Z,6.20
2018-01-16T11:27:48.111Z,5.70
2018-01-16T11:28:48.155Z,9.60
2018-01-16T11:29:48.122Z,7.10
2018-01-16T11:30:48.138Z,7.90
2018-01-16T11:31:48.122Z,6.80
2018-01-16T11:32:48.128Z,8.80
2018-01-16T11:33:48.131Z,6.80
2018-01-16T11:34:48.127Z,6.20
2018-01-16T11:35:48.134Z,10.00
2018-01-16T11:36:48.133Z,5.90
2018-01-16T11:37:48.138Z,9.40
2018-01-16T11:38:48.140Z,8.80
2018-01-16T11:39:48.160Z,8.10
2018-01-16T11:40:48.142Z,7.70
2018-01-16T11:41:48.143Z,5.30
2018-01-16T11:42:48.148Z,6.30
2018-01-16T11:43:48.149Z,5.50
2018-01-16T11:44:48.154Z,4.90
2018-01-16T11:45:48.154Z,7.00
2018-01-16T11:46:48.154Z,6.60
2018-01-16T11:47:48.153Z,6.80
2018-01-16T11:48:48.165Z,4.50
2018-01-16T11:49:48.165Z,6.30
2018-01-16T11:50:48.164Z,5.40
2018-01-16T11:51:48.167Z,8.00
2018-01-16T11:52:48.175Z,7.70
2018-01-16T11:53:48.189Z,7.00
2018-01-16T11:54:48.191Z,5.70
2018-01-16T11:55:48.175Z,5.40
2018-01-16T11:56:48.198Z,4.10
2018-01-16T11:57:48.197Z,4.30
2018-01-16T11:58:48.187Z,5.90
2018-01-16T11:59:48.194Z,7.80
2018-01-16T12:00:48.193Z,8.40
2018-01-16T12:01:48.201Z,8.00
2018-01-16T12:02:48.199Z,8.20
2018-01-16T12:03:48.204Z,6.30
2018-01-16T12:04:48.203Z,6.10
2018-01-16T12:05:48.212Z,6.20
2018-01-16T12:06:48.206Z,7.10
2018-01-16T12:07:48.211Z,9.20
2018-01-16T12:08:48.216Z,7.50
2018-01-16T12:09:48.219Z,5.70
2018-01-16T12:10:48.224Z,7.80
2018-01-16T12:11:48.226Z,8.10
2018-01-16T12:12:48.232Z,6.30
2018-01-16T12:13:48.234Z,7.50
2018-01-16T12:14:48.231Z,10.50
2018-01-16T12:15:48.234Z,7.60
2018-01-16T12:16:48.242Z,7.80
2018-01-16T12:17:48.245Z,6.80
2018-01-16T12:18:48.249Z,5.30
2018-01-16T12:19:48.247Z,7.70
2018-01-16T12:20:48.255Z,7.60
2018-01-16T12:21:48.256Z,8.00
2018-01-16T12:22:48.259Z,5.80
2018-01-16T12:23:48.268Z,7.90
2018-01-16T12:24:48.267Z,9.70
2018-01-16T12:25:48.294Z,7.60
2018-01-16T12:26:48.272Z,7.40
2018-01-16T12:27:48.273Z,6.80
2018-01-16T12:28:48.277Z,7.90
2018-01-16T12:29:48.272Z,9.30
2018-01-16T12:30:48.280Z,6.20
2018-01-16T12:31:48.288Z,6.20
2018-01-16T12:32:48.288Z,9.60
2018-01-16T12:33:48.288Z,9.20
2018-01-16T12:34:48.291Z,7.20
2018-01-16T12:35:48.297Z,6.90
2018-01-16T12:36:48.293Z,10.70
2018-01-16T12:37:48.300Z,8.60
2018-01-16T12:38:48.308Z,6.60
2018-01-16T12:39:48.305Z,6.80
2018-01-16T12:40:48.313Z,10.60
2018-01-16T12:41:48.312Z,11.70
2018-01-16T12:42:48.310Z,10.50
2018-01-16T12:43:48.321Z,7.50
2018-01-16T12:44:48.340Z,9.00
2018-01-16T12:45:48.328Z,7.40
2018-01-16T12:46:48.322Z,10.40
2018-01-16T12:47:48.336Z,6.60
2018-01-16T12:48:48.336Z,9.60
2018-01-16T12:49:48.331Z,8.50
2018-01-16T12:50:48.343Z,9.30
2018-01-16T12:51:48.345Z,9.10
2018-01-16T12:52:48.343Z,10.40
2018-01-16T12:53:48.355Z,10.10
2018-01-16T12:54:48.355Z,9.50
2018-01-16T12:55:48.389Z,12.70
2018-01-16T12:56:48.380Z,11.30
2018-01-16T12:57:48.365Z,10.10
2018-01-16T12:58:48.367Z,8.10
2018-01-16T12:59:48.368Z,9.80
2018-01-16T13:00:48.373Z,9.40
2018-01-16T13:01:48.374Z,9.40
2018-01-16T13:02:48.376Z,9.00
2018-01-16T13:03:48.381Z,9.60